Airfield :







YOU CAN JOIN US ON...

 
LOGIN :

Register | Disclaimer

   EN    FR    IT 

 









Legend :    VFR   Marginal VFR   IFR   Intensive IFR   Very Intensive IFR
Visi :
Ceiling :
>= 8 km
>= 3000ft
5 to 8 km
1000 to 3000 ft
1500m to 5 km
500 to 1000 ft
800 to 1500m
200 to 500 ft
< 800m
< 200 ft
Symbols :   Thunderstorms  Fog  Heavy snow  Heavy precipitations  Wind > 20 kt







- Airport Elevation : 92 ft
- IATA code : YZX


CYZX - CFB Greenwood

CURRENT METAR :
  • 221300Z 01003KT 10SM -SHRA SCT008 OVC012 13/12 A3020 RMK SF3SC5 PCPN VRY LGT SLP226

EXPIRED METARs :
  • 221200Z 12003KT 10SM -SHRA SCT004 BKN011 OVC040 13/12 A3019 RMK SF4SC2SC2 PCPN VRY LGT SLP224
  • 221119Z 14003KT 10SM -SHRA SCT004 BKN011 OVC040 12/12 A3018 RMK SF4SC2SC2 SLP219
  • 221100Z 19009KT 10SM -SHRA FEW005 SCT014 OVC053 12/12 A3018 RMK SF2SC2SC5 SLP220
  • 221051Z 16003KT 10SM -SHRA FEW008 SCT014 OVC053 12/12 A3018 RMK SF2SC2SC5 SLP221

TAF AMD TAF CYZX
Valid from the 22 at 13:00 until the 23 at 12:00 UTC


221313Z 2213/2312 VRB03KT P6SM -SHRA FEW008 OVC012
TEMPO 2213/2218 3SM -SHRA -DZ BR BKN008 OVC012
BECMG 2214/2216 04006KT
FM221800 04008KT 3SM -RA BR SCT006 OVC012
BECMG 2300/2302 04012KT RMK NXT FCST BY 221800Z
CZQM FIR / North America



MET'MAP, your aeronautical weather chart ! - Copyright ORBIFLY December 2007 - Disclaimer

ORBIFLY MET'MAP TEAM :

Programming & Development : Alexandra Zaïnal
Concept & Development : Baudouin d'Aumeries
Co-Development & Prog : Marc-Olivier Méhu
Technical & hardware support : Manuel Goepfert

Contact : metmap@orbifly.com




SOURCES & CREDITS :

   NOAA